Time;durP1;ratioP1;P1;durP2;ratioP2;P2;SDS_P1;SDS_P2;PMS_P1;PMS_P2;Temp;Humidity;BMP_temperature;BMP_pressure;BME280_temperature;BME280_humidity;BME280_pressure;Samples;Min_cycle;Max_cycle;Signal;HPM_P1;HPM_P2
2022/05/20 00:00:26;;;;;;;;;;;13.50;99.90;;;;;;5091487;28;19908;-80
2022/05/20 00:02:51;;;;;;;;;;;13.40;99.90;;;;;;5091882;28;19908;-80
2022/05/20 00:05:17;;;;;;;;;;;13.40;99.90;;;;;;5091243;28;20315;-80
2022/05/20 00:07:43;;;;;;;;;;;13.50;99.90;;;;;;5091588;28;19918;-80
2022/05/20 00:10:09;;;;;;;;;;;13.40;99.90;;;;;;5091305;28;19918;-79
2022/05/20 00:12:35;;;;;;;;;;;13.40;99.90;;;;;;5092030;28;19909;-79
2022/05/20 00:15:01;;;;;;;;;;;13.50;99.90;;;;;;5091396;28;19957;-79
2022/05/20 00:17:26;;;;;;;;;;;13.50;99.90;;;;;;5091119;28;19908;-79
2022/05/20 00:19:52;;;;;;;;;;;13.40;99.90;;;;;;5090626;28;19908;-78
2022/05/20 00:22:18;;;;;;;;;;;13.50;99.90;;;;;;5090837;28;20303;-79
2022/05/20 00:27:27;;;;;;;;;;;13.50;99.90;;;;;;5090970;28;19919;-77
2022/05/20 00:29:53;;;;;;;;;;;13.40;99.90;;;;;;5094146;28;19909;-77
2022/05/20 00:32:19;;;;;;;;;;;13.40;99.90;;;;;;5095258;28;20379;-77
2022/05/20 00:34:44;;;;;;;;;;;13.40;99.90;;;;;;5095705;28;19908;-77
2022/05/20 00:37:10;;;;;;;;;;;13.40;99.90;;;;;;5093957;28;19908;-76
2022/05/20 00:39:35;;;;;;;;;;;13.40;99.90;;;;;;5095811;28;19923;-78
2022/05/20 00:42:08;;;;;;;;;;;13.30;99.90;;;;;;5095605;28;19908;-77
2022/05/20 00:44:34;;;;;;;;;;;13.30;99.90;;;;;;5095878;28;19912;-77
2022/05/20 00:46:59;;;;;;;;;;;13.40;99.90;;;;;;5095195;28;19912;-77
2022/05/20 00:49:25;;;;;;;;;;;13.30;99.90;;;;;;5095071;28;19904;-77
2022/05/20 00:51:53;;;;;;;;;;;13.40;99.90;;;;;;5095518;28;20402;-77
2022/05/20 00:54:23;;;;;;;;;;;13.30;99.90;;;;;;5094996;28;19912;-76
2022/05/20 00:57:10;;;;;;;;;;;13.20;99.90;;;;;;5095137;28;20010;-77
2022/05/20 00:59:37;;;;;;;;;;;13.30;99.90;;;;;;5095492;28;20373;-77
2022/05/20 01:02:06;;;;;;;;;;;13.20;99.90;;;;;;5094118;28;19955;-78
2022/05/20 01:04:32;;;;;;;;;;;13.10;99.90;;;;;;5095067;28;19916;-77
2022/05/20 01:06:58;;;;;;;;;;;13.10;99.90;;;;;;5094916;28;19955;-78
2022/05/20 01:09:24;;;;;;;;;;;13.10;99.90;;;;;;5094648;28;19908;-78
2022/05/20 01:11:50;;;;;;;;;;;13.20;99.90;;;;;;5094931;28;19914;-78
2022/05/20 01:14:20;;;;;;;;;;;13.20;99.90;;;;;;5094287;28;20410;-77
2022/05/20 01:16:45;;;;;;;;;;;13.20;99.90;;;;;;5094716;28;20019;-78
2022/05/20 01:19:14;;;;;;;;;;;13.20;99.90;;;;;;5094500;28;20372;-77
2022/05/20 01:21:40;;;;;;;;;;;13.10;99.90;;;;;;5095404;28;19953;-77
2022/05/20 01:24:05;;;;;;;;;;;13.10;99.90;;;;;;5094921;28;19916;-78
2022/05/20 01:26:31;;;;;;;;;;;13.10;99.90;;;;;;5093088;28;19961;-77
2022/05/20 01:28:57;;;;;;;;;;;13.10;99.90;;;;;;5094632;28;19908;-77
2022/05/20 01:31:22;;;;;;;;;;;13.10;99.90;;;;;;5094248;28;19908;-78
2022/05/20 01:33:49;;;;;;;;;;;13.10;99.90;;;;;;5094363;28;20069;-78
2022/05/20 01:36:19;;;;;;;;;;;13.10;99.90;;;;;;5094042;28;19994;-77
2022/05/20 01:38:45;;;;;;;;;;;13.10;99.90;;;;;;5094776;28;19961;-78
2022/05/20 01:41:16;;;;;;;;;;;13.10;99.90;;;;;;5093750;28;20272;-77
2022/05/20 01:43:47;;;;;;;;;;;13.10;99.90;;;;;;5094662;28;19920;-78
2022/05/20 01:46:33;;;;;;;;;;;13.10;99.90;;;;;;5093770;28;20305;-78
2022/05/20 01:49:19;;;;;;;;;;;13.10;99.90;;;;;;5093732;28;20328;-78
2022/05/20 01:51:59;;;;;;;;;;;13.00;99.90;;;;;;5094566;28;19915;-78
2022/05/20 01:54:30;;;;;;;;;;;13.00;99.90;;;;;;5093339;28;20370;-78
2022/05/20 01:57:04;;;;;;;;;;;13.00;99.90;;;;;;5094072;28;19920;-77
2022/05/20 01:59:36;;;;;;;;;;;13.00;99.90;;;;;;5093742;28;19912;-77
2022/05/20 02:02:04;;;;;;;;;;;13.00;99.90;;;;;;5093791;28;20375;-78
2022/05/20 02:04:32;;;;;;;;;;;12.90;99.90;;;;;;5093226;28;20622;-78
2022/05/20 02:07:05;;;;;;;;;;;12.90;99.90;;;;;;5093974;28;19912;-77
2022/05/20 02:09:37;;;;;;;;;;;12.90;99.90;;;;;;5093476;28;20540;-77
2022/05/20 02:12:03;;;;;;;;;;;12.90;99.90;;;;;;5093946;28;20345;-78
2022/05/20 02:14:49;;;;;;;;;;;12.80;99.90;;;;;;5093127;28;19938;-78
2022/05/20 02:17:17;;;;;;;;;;;12.80;99.90;;;;;;5084219;28;19908;-77
2022/05/20 02:19:52;;;;;;;;;;;12.70;99.90;;;;;;5094102;28;19908;-78
2022/05/20 02:22:21;;;;;;;;;;;12.60;99.90;;;;;;5093320;28;19908;-76
2022/05/20 02:24:47;;;;;;;;;;;12.60;99.90;;;;;;5093776;28;20315;-77
2022/05/20 02:27:16;;;;;;;;;;;12.60;99.90;;;;;;5092168;28;19919;-76
2022/05/20 02:29:47;;;;;;;;;;;12.50;99.90;;;;;;5093428;28;19915;-77
2022/05/20 02:32:27;;;;;;;;;;;12.50;99.90;;;;;;5093138;28;19951;-77
2022/05/20 02:34:53;;;;;;;;;;;12.60;99.90;;;;;;5093623;28;19908;-77
2022/05/20 02:37:21;;;;;;;;;;;12.60;99.90;;;;;;5092901;28;19958;-77
2022/05/20 02:39:47;;;;;;;;;;;12.60;99.90;;;;;;5093289;28;19946;-77
2022/05/20 02:42:13;;;;;;;;;;;12.60;99.90;;;;;;5093016;28;19908;-77
2022/05/20 02:44:39;;;;;;;;;;;12.60;99.90;;;;;;5092911;28;20279;-78
2022/05/20 02:47:05;;;;;;;;;;;12.50;99.90;;;;;;5093319;28;19951;-78
2022/05/20 02:49:30;;;;;;;;;;;12.50;99.90;;;;;;5091554;28;19908;-78
2022/05/20 02:51:56;;;;;;;;;;;12.50;99.90;;;;;;5092913;28;19912;-77
2022/05/20 02:54:21;;;;;;;;;;;12.50;99.90;;;;;;5091484;28;19908;-77
2022/05/20 02:56:47;;;;;;;;;;;12.60;99.90;;;;;;5093469;28;19912;-78
2022/05/20 03:04:43;;;;;;;;;;;12.50;99.90;;;;;;5092950;28;19923;-77
2022/05/20 03:07:09;;;;;;;;;;;12.50;99.90;;;;;;5093191;28;19916;-78
2022/05/20 03:09:34;;;;;;;;;;;12.50;99.90;;;;;;5092579;28;19994;-78
2022/05/20 03:12:00;;;;;;;;;;;12.40;99.90;;;;;;5093079;28;20256;-78
2022/05/20 03:14:26;;;;;;;;;;;12.40;99.90;;;;;;5092558;28;20105;-77
2022/05/20 03:16:51;;;;;;;;;;;12.40;99.90;;;;;;5093092;28;19908;-77
2022/05/20 03:19:18;;;;;;;;;;;12.40;99.90;;;;;;5092381;28;19915;-77
2022/05/20 03:21:44;;;;;;;;;;;12.40;99.90;;;;;;5093046;28;19908;-77
2022/05/20 03:24:10;;;;;;;;;;;12.40;99.90;;;;;;5092927;28;19938;-78
2022/05/20 03:26:36;;;;;;;;;;;12.30;99.90;;;;;;5092166;28;19916;-77
2022/05/20 03:29:03;;;;;;;;;;;12.30;99.90;;;;;;5092864;28;20307;-78
2022/05/20 03:31:29;;;;;;;;;;;12.30;99.90;;;;;;5092134;28;19912;-77
2022/05/20 03:33:55;;;;;;;;;;;12.30;99.90;;;;;;5092923;28;20364;-77
2022/05/20 03:36:21;;;;;;;;;;;12.30;99.90;;;;;;5092349;28;19908;-78
2022/05/20 03:38:47;;;;;;;;;;;12.20;99.90;;;;;;5092483;28;19914;-78
2022/05/20 03:41:13;;;;;;;;;;;12.20;99.90;;;;;;5092850;28;19909;-78
2022/05/20 03:43:39;;;;;;;;;;;12.20;99.90;;;;;;5092128;28;19916;-77
2022/05/20 03:46:04;;;;;;;;;;;12.10;99.90;;;;;;5091696;28;20065;-78
2022/05/20 03:48:30;;;;;;;;;;;12.10;99.90;;;;;;5091835;28;19931;-78
2022/05/20 03:50:56;;;;;;;;;;;12.20;99.90;;;;;;5092451;28;19908;-78
2022/05/20 03:53:22;;;;;;;;;;;12.20;99.90;;;;;;5092141;28;19908;-77
2022/05/20 03:55:47;;;;;;;;;;;12.20;99.90;;;;;;5092425;28;19916;-78
2022/05/20 03:58:13;;;;;;;;;;;12.20;99.90;;;;;;5092572;28;19920;-78
2022/05/20 04:03:23;;;;;;;;;;;12.20;99.90;;;;;;5093626;28;20285;-78
2022/05/20 04:05:49;;;;;;;;;;;12.20;99.90;;;;;;5096495;28;19916;-78
2022/05/20 04:08:15;;;;;;;;;;;12.20;99.90;;;;;;5096325;28;19915;-78
2022/05/20 04:10:41;;;;;;;;;;;12.20;99.90;;;;;;5095858;28;19951;-78
2022/05/20 04:13:07;;;;;;;;;;;12.20;99.90;;;;;;5096417;28;19950;-78
2022/05/20 04:15:33;;;;;;;;;;;12.10;99.90;;;;;;5095522;28;19931;-78
2022/05/20 04:17:58;;;;;;;;;;;12.10;99.90;;;;;;5096288;28;19912;-78
2022/05/20 04:20:24;;;;;;;;;;;12.10;99.90;;;;;;5094026;28;20316;-77
2022/05/20 04:22:49;;;;;;;;;;;12.10;99.90;;;;;;5095845;28;19908;-78
2022/05/20 04:25:15;;;;;;;;;;;12.10;99.90;;;;;;5096598;28;19918;-78
2022/05/20 04:27:41;;;;;;;;;;;12.20;99.90;;;;;;5095738;28;19904;-78
2022/05/20 04:30:07;;;;;;;;;;;12.20;99.90;;;;;;5095786;28;20382;-78
2022/05/20 04:32:32;;;;;;;;;;;12.20;99.90;;;;;;5095196;28;19908;-77
2022/05/20 04:34:58;;;;;;;;;;;12.20;99.90;;;;;;5095978;28;20245;-78
2022/05/20 04:37:25;;;;;;;;;;;12.20;99.90;;;;;;5095314;28;20006;-78
2022/05/20 04:39:50;;;;;;;;;;;12.20;99.90;;;;;;5095527;28;19908;-78
2022/05/20 04:47:44;;;;;;;;;;;12.30;99.90;;;;;;5094937;28;19934;-78
2022/05/20 04:50:11;;;;;;;;;;;12.40;99.90;;;;;;5095285;28;19909;-78
2022/05/20 04:52:37;;;;;;;;;;;12.30;99.90;;;;;;5094970;28;20011;-78
2022/05/20 04:55:03;;;;;;;;;;;12.30;99.90;;;;;;5095510;28;20325;-78
2022/05/20 04:57:34;;;;;;;;;;;12.40;99.90;;;;;;5093289;28;19924;-78
2022/05/20 05:00:13;;;;;;;;;;;12.40;99.90;;;;;;5095742;28;19943;-77
2022/05/20 05:02:39;;;;;;;;;;;12.40;99.90;;;;;;5094674;28;19993;-78
2022/05/20 05:05:05;;;;;;;;;;;12.40;99.90;;;;;;5093864;28;19912;-78
2022/05/20 05:07:31;;;;;;;;;;;12.50;99.90;;;;;;5094485;28;19919;-77
2022/05/20 05:09:58;;;;;;;;;;;12.50;99.90;;;;;;5093781;28;20277;-78
2022/05/20 05:12:24;;;;;;;;;;;12.50;99.90;;;;;;5094726;28;19915;-77
2022/05/20 05:14:50;;;;;;;;;;;12.60;99.90;;;;;;5094071;28;20307;-78
2022/05/20 05:18:09;;;;;;;;;;;12.60;99.90;;;;;;5095145;28;19958;-78
2022/05/20 05:20:05;;;;;;;;;;;12.60;99.90;;;;;;5094731;28;20373;-77
2022/05/20 05:22:30;;;;;;;;;;;12.60;99.90;;;;;;5094388;28;19908;-77
2022/05/20 05:24:56;;;;;;;;;;;12.60;99.90;;;;;;5094632;28;19912;-77
2022/05/20 05:27:22;;;;;;;;;;;12.70;99.90;;;;;;5095260;28;19919;-78
2022/05/20 05:29:47;;;;;;;;;;;12.70;99.90;;;;;;5092877;28;20258;-78
2022/05/20 05:32:13;;;;;;;;;;;12.70;99.90;;;;;;5094840;28;19923;-78
2022/05/20 05:34:38;;;;;;;;;;;12.70;99.90;;;;;;5094168;28;20391;-77
2022/05/20 05:37:04;;;;;;;;;;;12.80;99.90;;;;;;5094391;28;19915;-77
2022/05/20 05:39:30;;;;;;;;;;;12.80;99.90;;;;;;5093888;28;20448;-78
2022/05/20 05:41:57;;;;;;;;;;;12.80;99.90;;;;;;5094514;28;19944;-78
2022/05/20 05:44:23;;;;;;;;;;;12.90;99.90;;;;;;5094021;28;20012;-78
2022/05/20 05:46:49;;;;;;;;;;;12.90;99.90;;;;;;5093854;28;20387;-78
2022/05/20 05:49:14;;;;;;;;;;;13.00;99.90;;;;;;5094330;28;19908;-78
2022/05/20 05:51:40;;;;;;;;;;;12.90;99.90;;;;;;5093677;28;20337;-78
2022/05/20 05:54:06;;;;;;;;;;;13.00;99.90;;;;;;5094647;28;20380;-78
2022/05/20 05:56:31;;;;;;;;;;;13.00;99.90;;;;;;5092095;28;19908;-78
2022/05/20 05:58:57;;;;;;;;;;;13.10;99.90;;;;;;5094128;28;20375;-78
2022/05/20 06:01:22;;;;;;;;;;;13.10;99.90;;;;;;5094221;28;19908;-77
2022/05/20 06:03:48;;;;;;;;;;;13.10;99.90;;;;;;5093379;28;19908;-77
2022/05/20 06:06:14;;;;;;;;;;;13.10;99.90;;;;;;5093819;28;19999;-78
2022/05/20 06:08:39;;;;;;;;;;;13.20;99.90;;;;;;5093076;28;20357;-78
2022/05/20 06:11:06;;;;;;;;;;;13.20;99.90;;;;;;5092541;28;20302;-78
2022/05/20 06:13:32;;;;;;;;;;;13.20;99.90;;;;;;5093282;28;19944;-78
2022/05/20 06:15:57;;;;;;;;;;;13.20;99.90;;;;;;5093789;28;19951;-78
2022/05/20 06:18:24;;;;;;;;;;;13.30;99.90;;;;;;5093616;28;20250;-78
2022/05/20 06:20:49;;;;;;;;;;;13.30;99.90;;;;;;5092697;28;19912;-78
2022/05/20 06:23:15;;;;;;;;;;;13.30;99.90;;;;;;5093429;28;19912;-78
2022/05/20 06:25:41;;;;;;;;;;;13.40;99.90;;;;;;5092753;28;19916;-77
2022/05/20 06:28:09;;;;;;;;;;;13.50;99.90;;;;;;5092958;28;19915;-78
2022/05/20 06:30:35;;;;;;;;;;;13.50;99.90;;;;;;5092552;28;19996;-77
2022/05/20 06:33:01;;;;;;;;;;;13.50;99.90;;;;;;5093714;28;19998;-78
2022/05/20 06:40:55;;;;;;;;;;;13.60;99.90;;;;;;5093195;28;19953;-78
2022/05/20 06:43:21;;;;;;;;;;;13.70;99.90;;;;;;5093349;28;20002;-78
2022/05/20 06:45:51;;;;;;;;;;;13.70;99.90;;;;;;5092817;28;20384;-78
2022/05/20 06:48:16;;;;;;;;;;;13.70;99.90;;;;;;5093260;28;19908;-78
2022/05/20 06:50:42;;;;;;;;;;;13.80;99.90;;;;;;5092408;28;20354;-78
2022/05/20 06:53:08;;;;;;;;;;;13.80;99.90;;;;;;5093110;28;19996;-78
2022/05/20 06:55:34;;;;;;;;;;;13.80;99.90;;;;;;5092651;28;20353;-78
2022/05/20 06:58:00;;;;;;;;;;;13.80;99.90;;;;;;5092561;28;19926;-78
2022/05/20 07:00:26;;;;;;;;;;;13.90;99.90;;;;;;5093060;28;19908;-78
2022/05/20 07:02:52;;;;;;;;;;;13.90;99.90;;;;;;5092460;28;20488;-78
2022/05/20 07:05:17;;;;;;;;;;;13.90;99.90;;;;;;5092893;28;19916;-79
2022/05/20 07:07:43;;;;;;;;;;;13.90;99.90;;;;;;5092394;28;19908;-78
2022/05/20 07:10:10;;;;;;;;;;;13.90;99.90;;;;;;5093169;28;19914;-78
2022/05/20 07:12:37;;;;;;;;;;;13.90;99.90;;;;;;5092252;28;19915;-78
2022/05/20 07:15:03;;;;;;;;;;;13.90;99.90;;;;;;5093404;28;20337;-78
2022/05/20 07:17:28;;;;;;;;;;;13.90;99.90;;;;;;5092855;28;19908;-78
2022/05/20 07:19:54;;;;;;;;;;;14.00;99.90;;;;;;5092273;28;19955;-78
2022/05/20 07:22:20;;;;;;;;;;;14.00;99.90;;;;;;5092707;28;20261;-78
2022/05/20 07:24:45;;;;;;;;;;;14.10;99.90;;;;;;5092149;28;19912;-78
2022/05/20 07:27:11;;;;;;;;;;;14.00;99.90;;;;;;5092567;28;19935;-78
2022/05/20 07:29:38;;;;;;;;;;;14.10;99.90;;;;;;5092285;28;19909;-77
2022/05/20 07:32:04;;;;;;;;;;;14.10;99.90;;;;;;5096821;28;19954;-77
2022/05/20 07:34:30;;;;;;;;;;;14.10;99.90;;;;;;5092959;28;19916;-78
2022/05/20 07:36:55;;;;;;;;;;;14.20;99.90;;;;;;5091951;28;19909;-78
2022/05/20 07:39:21;;;;;;;;;;;14.20;99.90;;;;;;5095900;28;19908;-78
2022/05/20 07:41:47;;;;;;;;;;;14.20;99.90;;;;;;5096212;28;19912;-77
2022/05/20 07:44:13;;;;;;;;;;;14.30;99.90;;;;;;5096644;28;19912;-78
2022/05/20 07:46:38;;;;;;;;;;;14.30;99.90;;;;;;5096434;28;20342;-78
2022/05/20 07:49:04;;;;;;;;;;;14.30;99.90;;;;;;5096709;28;19977;-78
2022/05/20 07:51:31;;;;;;;;;;;14.30;99.90;;;;;;5096663;28;20334;-78
2022/05/20 07:54:00;;;;;;;;;;;14.40;99.90;;;;;;5095589;28;20389;-77
2022/05/20 07:56:43;;;;;;;;;;;14.50;99.90;;;;;;5096589;28;19908;-78
2022/05/20 07:59:15;;;;;;;;;;;14.60;99.90;;;;;;5096884;28;19924;-78
2022/05/20 08:01:43;;;;;;;;;;;14.70;99.90;;;;;;5095638;28;19957;-77
2022/05/20 08:06:52;;;;;;;;;;;14.90;99.90;;;;;;5095571;28;19919;-78
2022/05/20 08:09:18;;;;;;;;;;;14.90;99.90;;;;;;5096386;28;20332;-78
2022/05/20 08:11:43;;;;;;;;;;;15.00;99.90;;;;;;5095757;28;20401;-78
2022/05/20 08:14:09;;;;;;;;;;;15.10;99.90;;;;;;5096079;28;19938;-78
2022/05/20 08:16:34;;;;;;;;;;;15.10;99.90;;;;;;5096194;28;19908;-78
2022/05/20 08:19:00;;;;;;;;;;;15.20;99.90;;;;;;5095446;28;19916;-78
2022/05/20 08:21:26;;;;;;;;;;;15.20;99.90;;;;;;5095799;28;19908;-78
2022/05/20 08:23:51;;;;;;;;;;;15.20;99.90;;;;;;5094958;28;19937;-78
2022/05/20 08:26:18;;;;;;;;;;;15.30;99.90;;;;;;5095752;28;19942;-78
2022/05/20 08:28:44;;;;;;;;;;;15.20;99.90;;;;;;5095258;28;19908;-78
2022/05/20 08:31:11;;;;;;;;;;;15.20;99.90;;;;;;5095447;28;19908;-79
2022/05/20 08:33:37;;;;;;;;;;;15.20;99.90;;;;;;5095613;28;19908;-79
2022/05/20 08:36:03;;;;;;;;;;;15.10;99.90;;;;;;5095181;28;20284;-77
2022/05/20 08:38:29;;;;;;;;;;;15.10;99.90;;;;;;5095213;28;19912;-78
2022/05/20 08:40:55;;;;;;;;;;;15.20;99.90;;;;;;5095030;28;19915;-78
2022/05/20 08:43:24;;;;;;;;;;;15.20;99.90;;;;;;5095079;28;19912;-77
2022/05/20 08:45:50;;;;;;;;;;;15.50;99.90;;;;;;5094868;28;19918;-77
2022/05/20 08:48:16;;;;;;;;;;;15.70;99.90;;;;;;5095554;28;20363;-78
2022/05/20 08:50:44;;;;;;;;;;;15.80;99.90;;;;;;5093607;28;19908;-77
2022/05/20 08:53:25;;;;;;;;;;;15.80;99.90;;;;;;5095170;28;19912;-78
2022/05/20 08:55:50;;;;;;;;;;;15.90;99.90;;;;;;5094490;28;19909;-78
2022/05/20 08:58:21;;;;;;;;;;;15.90;99.90;;;;;;5095022;28;19927;-78
2022/05/20 09:00:46;;;;;;;;;;;16.00;99.90;;;;;;5094418;28;19912;-78
2022/05/20 09:03:12;;;;;;;;;;;16.00;99.90;;;;;;5095193;28;19953;-78
2022/05/20 09:05:38;;;;;;;;;;;16.10;99.90;;;;;;5094639;28;19919;-78
2022/05/20 09:08:04;;;;;;;;;;;16.10;99.90;;;;;;5094442;28;19915;-77
2022/05/20 09:10:35;;;;;;;;;;;16.10;99.90;;;;;;5095008;28;19908;-77
2022/05/20 09:13:08;;;;;;;;;;;16.10;99.90;;;;;;5094291;28;19908;-78
2022/05/20 09:15:51;;;;;;;;;;;16.10;99.90;;;;;;5094794;28;19925;-77
2022/05/20 09:18:30;;;;;;;;;;;16.10;99.90;;;;;;5094777;28;19957;-78
2022/05/20 09:20:56;;;;;;;;;;;16.20;99.90;;;;;;5094264;28;19915;-77
2022/05/20 09:23:23;;;;;;;;;;;16.40;99.90;;;;;;5093470;28;19912;-78
2022/05/20 09:25:54;;;;;;;;;;;16.50;99.90;;;;;;5094026;28;19912;-77
2022/05/20 09:28:29;;;;;;;;;;;16.70;99.90;;;;;;5094366;28;19908;-77
2022/05/20 09:31:03;;;;;;;;;;;16.90;99.90;;;;;;5092798;28;20372;-77
2022/05/20 09:33:29;;;;;;;;;;;17.10;99.90;;;;;;5094508;28;20263;-77
2022/05/20 09:36:00;;;;;;;;;;;17.40;99.90;;;;;;5093619;28;20337;-77
2022/05/20 09:38:39;;;;;;;;;;;17.60;99.90;;;;;;5094606;28;19908;-78
2022/05/20 09:41:13;;;;;;;;;;;17.70;99.90;;;;;;5093826;28;20379;-77
2022/05/20 09:43:41;;;;;;;;;;;17.70;99.90;;;;;;5093077;28;19916;-78
2022/05/20 09:46:10;;;;;;;;;;;17.60;99.90;;;;;;5092557;28;19912;-78
2022/05/20 09:48:40;;;;;;;;;;;17.60;99.90;;;;;;5094153;28;19908;-78
2022/05/20 09:51:12;;;;;;;;;;;17.50;99.90;;;;;;5093643;28;19958;-78
2022/05/20 09:53:39;;;;;;;;;;;17.40;99.90;;;;;;5094288;28;20311;-78
2022/05/20 09:56:32;;;;;;;;;;;17.30;99.90;;;;;;5093174;28;19915;-77
2022/05/20 09:59:13;;;;;;;;;;;17.30;99.90;;;;;;5091903;28;20320;-77
2022/05/20 10:01:40;;;;;;;;;;;17.30;99.90;;;;;;5093775;28;19919;-78
2022/05/20 10:04:08;;;;;;;;;;;17.30;99.90;;;;;;5094670;28;20026;-77
2022/05/20 10:06:39;;;;;;;;;;;17.30;99.90;;;;;;5094168;28;19916;-78
2022/05/20 10:09:09;;;;;;;;;;;17.20;99.90;;;;;;5092304;28;20205;-78
2022/05/20 10:11:43;;;;;;;;;;;17.10;99.90;;;;;;5094179;28;20380;-78
2022/05/20 10:14:18;;;;;;;;;;;17.10;99.90;;;;;;5093498;28;19919;-77
2022/05/20 10:16:53;;;;;;;;;;;16.90;99.90;;;;;;5092995;28;19959;-78
2022/05/20 10:19:20;;;;;;;;;;;16.80;99.90;;;;;;5093480;28;19911;-78
2022/05/20 10:21:49;;;;;;;;;;;16.80;99.90;;;;;;5093130;28;19912;-77
2022/05/20 10:24:18;;;;;;;;;;;16.70;99.90;;;;;;5092556;28;20353;-79
2022/05/20 10:27:07;;;;;;;;;;;16.80;99.90;;;;;;5093059;28;19927;-78
2022/05/20 10:32:36;;;;;;;;;;;16.90;99.90;;;;;;5092879;28;19961;-78
2022/05/20 10:35:21;;;;;;;;;;;17.00;99.90;;;;;;5092515;28;19912;-78
2022/05/20 10:38:05;;;;;;;;;;;17.10;99.90;;;;;;5092227;28;20403;-77
2022/05/20 10:40:37;;;;;;;;;;;17.10;99.90;;;;;;5092542;28;20431;-78
2022/05/20 10:43:03;;;;;;;;;;;17.10;99.90;;;;;;5092175;28;20011;-79
2022/05/20 10:48:38;;;;;;;;;;;17.20;99.90;;;;;;5092922;28;19916;-77
2022/05/20 10:51:09;;;;;;;;;;;17.10;99.90;;;;;;5090511;28;19908;-78
2022/05/20 10:53:35;;;;;;;;;;;16.90;99.90;;;;;;5091524;28;19912;-77
2022/05/20 10:56:12;;;;;;;;;;;16.90;99.90;;;;;;5091663;28;20382;-77
2022/05/20 10:58:41;;;;;;;;;;;16.90;99.90;;;;;;5092109;28;19920;-78
2022/05/20 11:01:13;;;;;;;;;;;16.90;99.90;;;;;;5092091;28;19908;-77
2022/05/20 11:04:05;;;;;;;;;;;16.90;99.90;;;;;;5092292;28;19912;-77
2022/05/20 11:06:33;;;;;;;;;;;16.80;99.90;;;;;;5083416;28;20017;-77
2022/05/20 11:09:04;;;;;;;;;;;16.60;99.90;;;;;;5091747;28;19912;-78
2022/05/20 11:11:41;;;;;;;;;;;16.60;99.90;;;;;;5092051;28;19964;-78
2022/05/20 11:14:17;;;;;;;;;;;16.60;99.90;;;;;;5091062;28;20502;-77
2022/05/20 11:17:09;;;;;;;;;;;16.40;99.90;;;;;;5092313;28;19908;-77
2022/05/20 11:19:43;;;;;;;;;;;16.20;99.90;;;;;;5083221;28;19912;-79
2022/05/20 11:22:17;;;;;;;;;;;16.20;99.90;;;;;;5091569;28;19912;-76
2022/05/20 11:24:49;;;;;;;;;;;16.00;99.90;;;;;;5092103;28;19919;-75
2022/05/20 11:27:15;;;;;;;;;;;15.80;99.90;;;;;;5092323;28;19916;-77
2022/05/20 11:29:40;;;;;;;;;;;15.60;99.90;;;;;;5092267;28;19995;-77
2022/05/20 11:32:19;;;;;;;;;;;15.60;99.90;;;;;;5091471;28;19908;-80
2022/05/20 11:35:00;;;;;;;;;;;15.60;99.90;;;;;;5092268;28;19931;-79
2022/05/20 11:37:46;;;;;;;;;;;15.50;99.90;;;;;;5091733;28;19908;-78
2022/05/20 11:40:18;;;;;;;;;;;15.60;99.90;;;;;;5091672;28;19908;-79
2022/05/20 11:42:46;;;;;;;;;;;15.60;99.90;;;;;;5092079;28;19909;-79
2022/05/20 11:45:37;;;;;;;;;;;15.50;99.90;;;;;;5091484;28;19912;-80
2022/05/20 11:48:20;;;;;;;;;;;15.50;99.90;;;;;;5091492;28;19912;-79
2022/05/20 11:50:45;;;;;;;;;;;15.60;99.90;;;;;;5091905;28;19999;-80
2022/05/20 11:53:34;;;;;;;;;;;15.70;99.90;;;;;;5091437;28;20020;-80
2022/05/20 11:56:08;;;;;;;;;;;15.80;99.90;;;;;;5087182;28;20098;-79
2022/05/20 11:58:54;;;;;;;;;;;16.00;99.90;;;;;;5092013;28;20238;-79
2022/05/20 12:01:21;;;;;;;;;;;16.10;99.90;;;;;;5091694;28;20272;-80
2022/05/20 12:06:32;;;;;;;;;;;16.20;99.90;;;;;;5092493;28;20285;-80
2022/05/20 12:08:59;;;;;;;;;;;16.20;99.90;;;;;;5091650;28;19908;-81
2022/05/20 12:11:30;;;;;;;;;;;16.20;99.90;;;;;;5092577;28;19908;-81
2022/05/20 12:13:58;;;;;;;;;;;16.30;99.90;;;;;;5091909;28;19969;-79
2022/05/20 12:16:24;;;;;;;;;;;16.50;99.90;;;;;;5092459;28;19908;-81
2022/05/20 12:24:52;;;;;;;;;;;16.50;99.90;;;;;;5094081;28;19919;-80
2022/05/20 12:27:23;;;;;;;;;;;16.50;99.90;;;;;;5095898;28;19924;-81
2022/05/20 12:29:58;;;;;;;;;;;16.40;99.90;;;;;;5095927;28;20015;-81
2022/05/20 12:32:23;;;;;;;;;;;16.40;99.90;;;;;;5095394;28;19959;-80
2022/05/20 12:34:54;;;;;;;;;;;16.40;99.90;;;;;;5095794;28;20325;-81
2022/05/20 12:37:54;;;;;;;;;;;16.50;99.90;;;;;;5095824;28;19973;-80
2022/05/20 12:40:26;;;;;;;;;;;16.80;99.90;;;;;;5072877;28;19908;-80
2022/05/20 12:42:58;;;;;;;;;;;17.10;99.90;;;;;;5091056;28;20341;-78
2022/05/20 12:45:24;;;;;;;;;;;17.10;99.90;;;;;;5094858;28;20413;-80
2022/05/20 12:47:50;;;;;;;;;;;17.20;99.90;;;;;;5095402;28;19916;-80
2022/05/20 12:50:15;;;;;;;;;;;17.30;99.90;;;;;;5094965;28;20425;-81
2022/05/20 12:52:48;;;;;;;;;;;17.50;99.90;;;;;;5095527;28;19977;-80
2022/05/20 12:55:17;;;;;;;;;;;17.50;99.90;;;;;;5094720;28;19915;-80
2022/05/20 12:57:56;;;;;;;;;;;17.50;99.90;;;;;;5095109;28;19955;-80
2022/05/20 13:00:26;;;;;;;;;;;17.30;99.90;;;;;;5095775;28;19916;-80
2022/05/20 13:02:53;;;;;;;;;;;17.50;99.90;;;;;;5095177;28;19908;-78
2022/05/20 13:05:25;;;;;;;;;;;17.70;99.90;;;;;;5095003;28;19916;-81
2022/05/20 13:07:52;;;;;;;;;;;17.90;99.90;;;;;;5094956;28;19912;-81
2022/05/20 13:10:32;;;;;;;;;;;18.00;99.90;;;;;;5094938;28;20384;-81
2022/05/20 13:13:03;;;;;;;;;;;18.20;99.90;;;;;;5094217;28;19914;-81
2022/05/20 13:15:29;;;;;;;;;;;18.30;99.90;;;;;;5095897;28;19944;-81
2022/05/20 13:18:03;;;;;;;;;;;18.40;99.90;;;;;;5094228;28;20377;-77
2022/05/20 13:20:30;;;;;;;;;;;18.30;99.90;;;;;;5094459;28;19908;-80
2022/05/20 13:22:58;;;;;;;;;;;18.50;99.90;;;;;;5094465;28;20384;-78
2022/05/20 13:25:23;;;;;;;;;;;18.60;99.90;;;;;;5094936;28;19912;-81
2022/05/20 13:27:49;;;;;;;;;;;18.50;99.90;;;;;;5093499;28;20004;-81
2022/05/20 13:30:25;;;;;;;;;;;18.30;99.90;;;;;;5094008;28;20084;-80
2022/05/20 13:32:51;;;;;;;;;;;18.00;99.90;;;;;;5094875;28;19986;-80
2022/05/20 13:35:17;;;;;;;;;;;17.70;99.90;;;;;;5093889;28;19920;-80
2022/05/20 13:37:48;;;;;;;;;;;17.40;99.90;;;;;;5094456;28;19908;-80
2022/05/20 13:40:18;;;;;;;;;;;17.10;99.90;;;;;;5094041;28;19961;-80
2022/05/20 13:42:55;;;;;;;;;;;17.00;99.90;;;;;;5094612;28;20010;-80
2022/05/20 13:49:13;;;;;;;;;;;16.90;99.90;;;;;;5094099;28;19961;-81
2022/05/20 13:51:01;;;;;;;;;;;17.10;99.90;;;;;;5093527;28;19915;-80
2022/05/20 13:53:26;;;;;;;;;;;17.20;99.90;;;;;;5094447;28;19908;-80
2022/05/20 13:55:52;;;;;;;;;;;17.40;99.90;;;;;;5094271;28;19988;-80
2022/05/20 13:58:18;;;;;;;;;;;17.50;99.90;;;;;;5093768;28;20404;-81
2022/05/20 14:00:45;;;;;;;;;;;17.50;99.90;;;;;;5094214;28;19919;-80
2022/05/20 14:03:28;;;;;;;;;;;17.60;99.90;;;;;;5093492;28;19908;-80
2022/05/20 14:05:53;;;;;;;;;;;17.80;99.90;;;;;;5093874;28;20265;-81
2022/05/20 14:08:20;;;;;;;;;;;18.00;99.90;;;;;;5093581;28;19923;-80
2022/05/20 14:10:50;;;;;;;;;;;18.10;99.90;;;;;;5093880;28;19908;-81
2022/05/20 14:13:35;;;;;;;;;;;18.30;99.90;;;;;;5093356;28;20350;-81
2022/05/20 14:16:01;;;;;;;;;;;18.40;99.90;;;;;;5093272;28;19908;-80
2022/05/20 14:18:31;;;;;;;;;;;18.40;99.90;;;;;;5093789;28;19915;-80
2022/05/20 14:21:05;;;;;;;;;;;18.40;99.90;;;;;;5094075;28;19943;-82
2022/05/20 14:23:37;;;;;;;;;;;18.40;99.90;;;;;;5093271;28;20336;-82
2022/05/20 14:26:09;;;;;;;;;;;18.40;99.90;;;;;;5093182;28;20011;-80
2022/05/20 14:28:53;;;;;;;;;;;18.30;99.90;;;;;;5093555;28;19912;-81
2022/05/20 14:31:23;;;;;;;;;;;18.30;99.90;;;;;;5093014;28;19908;-80
2022/05/20 14:33:51;;;;;;;;;;;18.20;99.90;;;;;;5093039;28;19908;-80
2022/05/20 14:36:17;;;;;;;;;;;18.00;99.90;;;;;;5092571;28;19908;-80
2022/05/20 14:38:44;;;;;;;;;;;17.70;99.90;;;;;;5092290;28;19915;-79
2022/05/20 14:41:16;;;;;;;;;;;17.60;99.90;;;;;;5092943;28;19965;-79
2022/05/20 14:43:50;;;;;;;;;;;17.50;99.90;;;;;;5092952;28;19958;-81
2022/05/20 14:47:14;;;;;;;;;;;17.50;99.90;;;;;;5092447;28;20361;-81
2022/05/20 14:49:06;;;;;;;;;;;17.50;99.90;;;;;;5091524;28;19908;-80
2022/05/20 14:51:32;;;;;;;;;;;17.50;99.90;;;;;;5093261;28;19915;-80
2022/05/20 14:54:02;;;;;;;;;;;17.70;99.90;;;;;;5093055;28;20002;-78
2022/05/20 14:56:40;;;;;;;;;;;18.00;99.90;;;;;;5093253;28;20380;-77
2022/05/20 14:59:07;;;;;;;;;;;18.20;99.90;;;;;;5092222;28;19974;-79
2022/05/20 15:01:33;;;;;;;;;;;18.70;99.90;;;;;;5093013;28;20417;-79
2022/05/20 15:03:59;;;;;;;;;;;18.90;99.90;;;;;;5092954;28;19916;-80
2022/05/20 15:06:33;;;;;;;;;;;19.20;99.90;;;;;;5092321;28;19919;-79
2022/05/20 15:08:59;;;;;;;;;;;19.50;99.90;;;;;;5092868;28;19912;-80